createdAt,value
2023-04-03T00:00:58.591Z,59.48
2023-04-03T00:06:01.529Z,60.13
2023-04-03T00:11:04.330Z,59.09
2023-04-03T00:16:07.778Z,59.20
2023-04-03T00:21:13.180Z,58.87
2023-04-03T00:26:15.518Z,58.45
2023-04-03T00:31:17.983Z,59.32
2023-04-03T00:36:20.254Z,59.47
2023-04-03T00:41:22.628Z,58.94
2023-04-03T00:46:24.757Z,59.11
2023-04-03T00:51:28.035Z,59.11
2023-04-03T00:56:31.358Z,58.12
2023-04-03T01:01:34.118Z,58.40
2023-04-03T01:06:38.225Z,57.81
2023-04-03T01:11:43.034Z,57.77
2023-04-03T01:16:56.476Z,57.91
2023-04-03T01:22:24.764Z,58.08
2023-04-03T01:27:27.146Z,57.74
2023-04-03T01:32:29.446Z,58.19
2023-04-03T01:37:32.027Z,58.15
2023-04-03T01:42:34.581Z,57.84
2023-04-03T01:47:36.804Z,57.37
2023-04-03T01:52:38.989Z,57.92
2023-04-03T01:57:41.141Z,57.77
2023-04-03T02:02:43.844Z,57.75
2023-04-03T02:07:46.537Z,57.62
2023-04-03T02:12:48.616Z,57.54
2023-04-03T02:17:50.856Z,57.96
2023-04-03T02:22:52.979Z,58.57
2023-04-03T02:27:55.071Z,58.08
2023-04-03T02:32:57.206Z,58.52
2023-04-03T02:38:01.180Z,57.94
2023-04-03T02:43:03.515Z,57.68
2023-04-03T02:48:06.373Z,57.97
2023-04-03T02:53:08.587Z,57.82
2023-04-03T02:58:10.894Z,57.61
2023-04-03T03:03:14.726Z,58.28
2023-04-03T03:08:16.989Z,57.90
2023-04-03T03:13:19.140Z,58.51
2023-04-03T03:18:22.000Z,57.80
2023-04-03T03:23:27.257Z,59.04
2023-04-03T03:28:29.636Z,59.11
2023-04-03T03:33:31.949Z,58.85
2023-04-03T03:38:35.476Z,58.59
2023-04-03T03:43:38.193Z,58.41
2023-04-03T03:48:42.054Z,58.33
2023-04-03T03:53:44.296Z,58.00
2023-04-03T03:58:50.850Z,57.45
2023-04-03T04:03:55.169Z,57.45
2023-04-03T04:09:01.753Z,56.95
2023-04-03T04:14:05.904Z,56.76
2023-04-03T04:19:08.949Z,55.99
2023-04-03T04:24:12.702Z,55.67
2023-04-03T04:29:15.585Z,55.25
2023-04-03T04:34:19.952Z,54.95
2023-04-03T04:39:23.262Z,54.38
2023-04-03T04:44:26.312Z,54.78
2023-04-03T04:49:28.740Z,54.82
2023-04-03T04:54:30.915Z,54.58
2023-04-03T04:59:33.894Z,54.71
2023-04-03T05:04:37.004Z,53.95
2023-04-03T05:09:44.898Z,53.18
2023-04-03T05:14:49.019Z,52.88
2023-04-03T05:19:51.960Z,51.83
2023-04-03T05:24:56.507Z,51.60
2023-04-03T05:29:59.338Z,50.59
2023-04-03T05:35:01.910Z,48.62
2023-04-03T05:40:07.098Z,46.92
2023-04-03T05:45:10.506Z,46.15
2023-04-03T05:50:13.173Z,46.18
2023-04-03T05:55:15.490Z,45.43
2023-04-03T06:00:18.107Z,46.46
2023-04-03T06:05:29.784Z,46.44
2023-04-03T06:10:32.052Z,47.05
2023-04-03T06:15:34.886Z,46.83
2023-04-03T06:20:37.348Z,46.78
2023-04-03T06:25:39.714Z,47.66
2023-04-03T06:30:41.841Z,46.83
2023-04-03T06:35:44.309Z,46.95
2023-04-03T06:40:46.899Z,46.19
2023-04-03T06:45:49.006Z,46.28
2023-04-03T06:50:51.203Z,45.39
2023-04-03T06:55:53.364Z,44.79
2023-04-03T07:00:55.807Z,43.84
2023-04-03T07:05:57.909Z,43.99
2023-04-03T07:11:00.122Z,43.25
2023-04-03T07:16:03.218Z,41.68
2023-04-03T07:21:05.696Z,40.59
2023-04-03T07:26:09.202Z,39.53
2023-04-03T07:31:17.973Z,37.38
2023-04-03T07:36:23.027Z,36.17
2023-04-03T07:41:25.378Z,35.19
2023-04-03T07:46:28.125Z,33.54
2023-04-03T07:51:31.000Z,31.89
2023-04-03T07:56:33.389Z,31.91
2023-04-03T08:01:35.722Z,32.22
2023-04-03T08:06:46.278Z,31.81
2023-04-03T08:11:49.241Z,31.44
2023-04-03T08:16:51.600Z,31.51
2023-04-03T08:21:58.766Z,31.47
2023-04-03T08:27:02.018Z,31.28
2023-04-03T08:32:06.579Z,31.07
2023-04-03T08:37:08.718Z,30.24
2023-04-03T08:42:41.600Z,30.21
2023-04-03T08:48:08.604Z,28.58
2023-04-03T08:53:17.000Z,29.42
2023-04-03T08:58:29.242Z,29.28
2023-04-03T09:03:34.266Z,28.18
2023-04-03T09:08:59.437Z,29.96
2023-04-03T09:14:02.346Z,28.40
2023-04-03T09:19:37.407Z,29.54
2023-04-03T09:24:39.822Z,28.49
2023-04-03T09:29:44.670Z,28.81
2023-04-03T09:34:48.537Z,29.45
2023-04-03T09:39:55.320Z,30.58
2023-04-03T09:45:03.899Z,30.67
2023-04-03T09:50:15.251Z,31.66
2023-04-03T09:55:22.216Z,30.57
2023-04-03T10:00:28.164Z,30.72
2023-04-03T10:05:32.958Z,31.50
2023-04-03T10:10:35.777Z,31.77
2023-04-03T10:15:47.577Z,31.77
2023-04-03T10:20:53.207Z,32.11
2023-04-03T10:26:12.685Z,31.11
2023-04-03T10:31:26.618Z,30.67
2023-04-03T10:36:55.599Z,31.56
2023-04-03T10:42:31.572Z,30.54
2023-04-03T10:48:08.846Z,30.01
2023-04-03T10:53:33.821Z,31.28
2023-04-03T10:58:40.464Z,32.10
2023-04-03T11:03:47.374Z,33.27
2023-04-03T11:08:58.389Z,33.23
2023-04-03T11:14:06.673Z,32.71
2023-04-03T11:19:22.541Z,33.24
2023-04-03T11:24:28.966Z,32.34
2023-04-03T11:29:37.616Z,32.50
2023-04-03T11:34:47.406Z,32.03
2023-04-03T11:40:02.115Z,31.92
2023-04-03T11:45:27.840Z,32.39
2023-04-03T11:50:36.169Z,32.15
2023-04-03T11:55:51.969Z,32.56
2023-04-03T12:01:30.711Z,33.65
2023-04-03T12:06:36.977Z,34.02
2023-04-03T12:11:39.357Z,34.37
2023-04-03T12:16:41.731Z,34.46
2023-04-03T12:21:47.515Z,34.70
2023-04-03T12:26:52.776Z,34.60
2023-04-03T12:32:25.454Z,34.90
2023-04-03T12:37:36.657Z,36.00
2023-04-03T12:43:00.552Z,36.19
2023-04-03T12:48:05.898Z,36.90
2023-04-03T12:53:15.139Z,37.68
2023-04-03T12:58:23.662Z,38.42
2023-04-03T13:03:30.557Z,38.25
2023-04-03T13:08:33.469Z,39.18
2023-04-03T13:13:35.673Z,39.88
2023-04-03T13:18:38.895Z,40.66
2023-04-03T13:23:44.516Z,40.32
2023-04-03T13:28:48.295Z,39.92
2023-04-03T13:34:08.810Z,40.16
2023-04-03T13:39:13.921Z,39.92
2023-04-03T13:44:25.718Z,39.98
2023-04-03T13:49:29.578Z,40.35
2023-04-03T13:54:39.017Z,40.62
2023-04-03T13:59:41.304Z,41.72
2023-04-03T14:04:43.432Z,42.82
2023-04-03T14:09:45.647Z,43.69
2023-04-03T14:14:47.856Z,43.16
2023-04-03T14:19:52.451Z,44.13
2023-04-03T14:24:54.527Z,43.94
2023-04-03T14:29:58.673Z,44.73
2023-04-03T14:35:01.638Z,45.18
2023-04-03T14:40:06.465Z,44.53
2023-04-03T14:45:12.585Z,44.58
2023-04-03T14:50:25.206Z,48.64
2023-04-03T14:55:28.781Z,47.62
2023-04-03T15:00:31.182Z,46.74
2023-04-03T15:05:33.243Z,45.68
2023-04-03T15:10:35.498Z,45.94
2023-04-03T15:15:38.220Z,46.31
2023-04-03T15:20:40.675Z,46.49
2023-04-03T15:25:49.173Z,47.20
2023-04-03T15:30:51.488Z,47.28
2023-04-03T15:35:55.839Z,47.15
2023-04-03T15:40:58.384Z,47.39
2023-04-03T15:46:01.457Z,46.98
2023-04-03T15:51:03.870Z,47.08
2023-04-03T15:56:06.189Z,47.74
2023-04-03T16:01:12.354Z,48.55
2023-04-03T16:06:16.728Z,48.55
2023-04-03T16:11:18.910Z,48.35
2023-04-03T16:16:21.315Z,49.16
2023-04-03T16:21:25.537Z,49.26
2023-04-03T16:26:28.004Z,49.24
2023-04-03T16:31:30.358Z,49.72
2023-04-03T16:36:32.622Z,50.65
2023-04-03T16:41:34.743Z,51.46
2023-04-03T16:46:36.870Z,51.97
2023-04-03T16:51:38.996Z,51.97
2023-04-03T16:56:41.394Z,52.36
2023-04-03T17:01:43.640Z,53.18
2023-04-03T17:06:46.145Z,53.74
2023-04-03T17:11:49.437Z,53.89
2023-04-03T17:16:52.312Z,53.68
2023-04-03T17:21:54.510Z,54.94
2023-04-03T17:26:56.645Z,54.81
2023-04-03T17:31:58.843Z,55.03
2023-04-03T17:37:01.178Z,55.67
2023-04-03T17:42:03.617Z,55.43
2023-04-03T17:47:05.885Z,56.02
2023-04-03T17:52:07.998Z,56.00
2023-04-03T17:57:10.166Z,56.91
2023-04-03T18:02:12.326Z,57.00
2023-04-03T18:07:14.556Z,57.54
2023-04-03T18:12:16.797Z,57.96
2023-04-03T18:17:19.614Z,57.75
2023-04-03T18:22:24.392Z,58.24
2023-04-03T18:27:27.714Z,58.25
2023-04-03T18:32:29.825Z,58.64
2023-04-03T18:37:32.087Z,58.32
2023-04-03T18:42:34.491Z,58.38
2023-04-03T18:47:37.092Z,59.06
2023-04-03T18:52:39.516Z,59.26
2023-04-03T18:57:41.636Z,59.32
2023-04-03T19:02:45.155Z,60.16
2023-04-03T19:07:48.575Z,59.52
2023-04-03T19:12:51.569Z,60.22
2023-04-03T19:17:53.833Z,59.77
2023-04-03T19:22:56.019Z,60.30
2023-04-03T19:27:58.235Z,60.93
2023-04-03T19:33:00.553Z,60.48
2023-04-03T19:38:02.689Z,60.77
2023-04-03T19:43:05.053Z,61.09
2023-04-03T19:48:08.008Z,61.47
2023-04-03T19:53:11.865Z,61.12
2023-04-03T19:58:14.191Z,61.52
2023-04-03T20:03:16.446Z,61.22
2023-04-03T20:08:19.367Z,61.10
2023-04-03T20:13:21.834Z,60.86
2023-04-03T20:18:24.236Z,61.75
2023-04-03T20:23:27.408Z,61.02
2023-04-03T20:28:29.627Z,61.23
2023-04-03T20:33:32.122Z,61.35
2023-04-03T20:38:34.243Z,61.47
2023-04-03T20:43:38.388Z,61.26
2023-04-03T20:48:41.637Z,61.10
2023-04-03T20:53:44.479Z,61.08
2023-04-03T20:58:47.716Z,61.76
2023-04-03T21:03:52.609Z,61.48
2023-04-03T21:09:32.043Z,61.43
2023-04-03T21:15:14.831Z,61.27
2023-04-03T21:20:17.032Z,62.21
2023-04-03T21:25:19.090Z,62.30
2023-04-03T21:30:21.682Z,62.41
2023-04-03T21:35:23.831Z,62.67
2023-04-03T21:40:26.835Z,62.38
2023-04-03T21:45:29.691Z,62.78
2023-04-03T21:50:32.823Z,63.01
2023-04-03T21:55:34.932Z,63.43
2023-04-03T22:00:37.483Z,63.16
2023-04-03T22:05:39.679Z,63.83
2023-04-03T22:10:41.852Z,63.93
2023-04-03T22:15:47.493Z,64.05
2023-04-03T22:20:49.625Z,64.42
2023-04-03T22:26:02.064Z,64.44
2023-04-03T22:31:08.620Z,64.84
2023-04-03T22:36:12.801Z,65.32
2023-04-03T22:41:14.904Z,65.27
2023-04-03T22:46:17.093Z,65.33
2023-04-03T22:51:19.178Z,65.94
2023-04-03T22:56:23.938Z,65.87
2023-04-03T23:01:27.704Z,66.15
2023-04-03T23:06:29.774Z,66.21
2023-04-03T23:11:31.707Z,63.24
2023-04-03T23:16:33.802Z,65.37
2023-04-03T23:21:36.489Z,66.40
2023-04-03T23:26:38.635Z,66.05
2023-04-03T23:31:40.693Z,66.42
2023-04-03T23:36:43.208Z,66.43
2023-04-03T23:41:45.531Z,65.82
2023-04-03T23:46:47.743Z,65.77
2023-04-03T23:51:49.854Z,65.58
2023-04-03T23:56:51.934Z,66.41
